Time;durP1;ratioP1;P1;durP2;ratioP2;P2;SDS_P1;SDS_P2;PMS_P1;PMS_P2;Temp;Humidity;BMP_temperature;BMP_pressure;BME280_temperature;BME280_humidity;BME280_pressure;Samples;Min_cycle;Max_cycle;Signal;HPM_P1;HPM_P2
2022/11/04 00:01:53;;;;;;;20.10;18.00;;;;;;;9.33;75.16;97373.37;102948;1315;22565;-82
2022/11/04 00:04:24;;;;;;;19.50;17.30;;;;;;;9.32;75.45;97370.48;103644;1302;22487;-83
2022/11/04 00:06:53;;;;;;;21.80;17.90;;;;;;;9.34;75.97;97367.02;103390;1309;22493;-82
2022/11/04 00:09:27;;;;;;;19.40;17.30;;;;;;;9.33;75.53;97362.46;103623;1294;22574;-82
2022/11/04 00:14:43;;;;;;;23.70;19.00;;;;;;;9.27;75.74;97361.67;103384;1306;23273;-84
2022/11/04 00:17:23;;;;;;;20.40;18.40;;;;;;;9.24;75.67;97358.95;103544;1310;24407;-84
2022/11/04 00:33:56;;;;;;;21.80;19.70;;;;;;;9.13;76.13;97342.91;103616;1288;22590;-83
2022/11/04 00:36:25;;;;;;;20.90;18.70;;;;;;;9.11;76.05;97342.20;104277;1305;23218;-84
2022/11/04 00:38:53;;;;;;;20.80;17.10;;;;;;;9.10;76.56;97336.57;103322;1314;24245;-83
2022/11/04 00:41:28;;;;;;;20.00;17.60;;;;;;;9.12;76.57;97334.65;103463;1313;24270;-83
2022/11/04 00:44:02;;;;;;;22.10;19.80;;;;;;;9.12;76.55;97333.20;103499;1310;25686;-82
2022/11/04 00:46:32;;;;;;;23.20;19.00;;;;;;;9.10;76.40;97330.65;103243;1312;22516;-82
2022/11/04 00:49:00;;;;;;;20.40;18.30;;;;;;;9.08;76.64;97328.55;103211;1313;22493;-83
2022/11/04 00:51:28;;;;;;;21.20;18.90;;;;;;;9.06;76.63;97321.40;103233;1309;23012;-82
2022/11/04 00:53:57;;;;;;;18.80;16.70;;;;;;;9.06;76.66;97315.23;103113;1313;22551;-83
2022/11/04 00:56:25;;;;;;;18.50;16.50;;;;;;;9.07;76.87;97315.52;103374;1313;25201;-82
2022/11/04 00:58:53;;;;;;;20.50;17.50;;;;;;;9.09;76.66;97319.27;103066;1313;24357;-84
2022/11/04 01:01:21;;;;;;;19.90;16.80;;;;;;;9.11;76.65;97314.34;103079;1303;26548;-86
2022/11/04 01:03:51;;;;;;;24.30;17.40;;;;;;;9.09;76.82;97313.73;103353;1294;25371;-83
2022/11/04 01:06:24;;;;;;;22.30;18.50;;;;;;;9.07;76.82;97310.18;103353;1309;22878;-85
2022/11/04 01:09:20;;;;;;;20.30;17.90;;;;;;;8.95;76.73;97288.09;103317;1290;23888;-85
2022/11/04 01:12:11;;;;;;;18.20;16.30;;;;;;;9.01;76.66;97299.48;103237;1313;22474;-85
2022/11/04 01:14:42;;;;;;;;;;;;;;;8.97;76.96;97294.17;103168;1307;22448;-83
2022/11/04 01:17:10;;;;;;;20.80;17.40;;;;;;;9.01;77.11;97299.02;103305;1310;22550;-82
2022/11/04 01:19:38;;;;;;;21.40;17.80;;;;;;;9.02;77.43;97293.79;103091;1310;22592;-83
2022/11/04 01:22:06;;;;;;;20.40;17.60;;;;;;;9.02;77.09;97291.21;103340;1309;22584;-82
2022/11/04 01:24:34;;;;;;;24.50;17.20;;;;;;;9.00;77.22;97289.66;103370;1301;22604;-83
2022/11/04 01:27:02;;;;;;;20.00;17.70;;;;;;;8.96;77.23;97287.48;103292;1312;22508;-84
2022/11/04 01:29:30;;;;;;;21.50;18.20;;;;;;;8.94;77.33;97285.88;103275;1312;22490;-81
2022/11/04 01:31:58;;;;;;;18.90;16.90;;;;;;;8.90;77.08;97282.96;103106;1312;22874;-82
2022/11/04 01:34:26;;;;;;;18.80;16.50;;;;;;;8.89;77.15;97276.10;103320;1309;24439;-83
2022/11/04 01:36:54;;;;;;;23.60;18.20;;;;;;;8.90;77.10;97266.52;103332;1316;24680;-82
2022/11/04 01:39:22;;;;;;;23.30;20.70;;;;;;;8.89;77.40;97264.27;103322;1309;22613;-82
2022/11/04 01:41:50;;;;;;;24.70;22.20;;;;;;;8.87;77.43;97261.09;103350;1309;22610;-82
2022/11/04 01:44:41;;;;;;;22.80;18.80;;;;;;;8.84;77.45;97261.38;103211;1310;22525;-82
2022/11/04 01:47:43;;;;;;;23.30;20.90;;;;;;;8.78;77.53;97257.41;103246;1313;25608;-82
2022/11/04 01:50:16;;;;;;;20.30;18.00;;;;;;;8.73;77.17;97251.77;102921;1320;25859;-82
2022/11/04 01:53:12;;;;;;;18.50;16.50;;;;;;;8.74;77.28;97248.43;102668;1318;22540;-81
2022/11/04 01:55:46;;;;;;;18.70;16.00;;;;;;;8.75;77.41;97240.58;102420;1321;23140;-81
2022/11/04 01:58:17;;;;;;;19.20;17.10;;;;;;;8.75;77.84;97244.74;102292;1320;22579;-81
2022/11/04 02:00:45;;;;;;;19.70;17.60;;;;;;;8.75;77.61;97242.73;102256;1320;22531;-83
2022/11/04 02:03:18;;;;;;;17.80;16.10;;;;;;;8.74;77.71;97236.68;102367;1320;25309;-82
2022/11/04 02:05:47;;;;;;;19.10;16.00;;;;;;;8.73;77.63;97238.19;102134;1321;22601;-82
2022/11/04 02:08:16;;;;;;;17.10;15.20;;;;;;;8.74;77.81;97232.80;102495;1312;22885;-82
2022/11/04 02:10:55;;;;;;;23.20;15.10;;;;;;;8.78;77.88;97230.17;102521;1318;25260;-81
2022/11/04 02:13:24;;;;;;;17.50;14.70;;;;;;;8.84;77.77;97222.09;102277;1323;23405;-82
2022/11/04 02:15:58;;;;;;;20.20;15.10;;;;;;;8.86;77.44;97213.61;102384;1320;22552;-83
2022/11/04 02:18:45;;;;;;;18.40;16.50;;;;;;;8.88;77.71;97212.80;102597;1317;23996;-84
2022/11/04 02:21:48;;;;;;;19.60;15.50;;;;;;;8.90;77.52;97209.73;102519;1320;25639;-82
2022/11/04 02:24:51;;;;;;;19.00;14.20;;;;;;;8.91;77.27;97213.27;102013;1318;24101;-82
2022/11/04 02:27:41;;;;;;;16.10;14.00;;;;;;;8.96;77.28;97205.06;102399;1314;22629;-81
2022/11/04 02:30:20;;;;;;;15.80;14.10;;;;;;;8.99;77.29;97205.57;103700;1309;25375;-81
2022/11/04 02:33:17;;;;;;;16.80;14.70;;;;;;;9.02;77.08;97204.91;103371;1310;25694;-82
2022/11/04 02:36:03;;;;;;;16.60;14.30;;;;;;;9.01;77.01;97195.30;103308;1310;23477;-82
2022/11/04 02:38:37;;;;;;;16.60;14.60;;;;;;;9.00;76.70;97190.08;103332;1310;22634;-82
2022/11/04 02:41:15;;;;;;;15.80;13.30;;;;;;;8.98;76.69;97194.84;103310;1309;25437;-81
2022/11/04 02:43:46;;;;;;;15.50;13.70;;;;;;;8.96;76.60;97187.80;103212;1310;22614;-87
2022/11/04 02:46:23;;;;;;;17.50;13.00;;;;;;;8.93;76.63;97190.66;103365;1309;23889;-83
2022/11/04 02:49:12;;;;;;;15.80;13.30;;;;;;;8.93;76.93;97188.80;103271;1305;22724;-82
2022/11/04 02:51:46;;;;;;;17.10;14.00;;;;;;;8.93;76.89;97183.67;103335;1302;22619;-81
2022/11/04 02:54:25;;;;;;;15.10;12.90;;;;;;;8.95;77.12;97189.16;103338;1310;25510;-82
2022/11/04 02:56:57;;;;;;;16.80;14.00;;;;;;;8.95;77.00;97182.70;103368;1294;22597;-82
2022/11/04 02:59:35;;;;;;;15.20;13.50;;;;;;;8.95;76.76;97187.52;103796;1310;25202;-79
2022/11/04 03:02:07;;;;;;;16.50;13.80;;;;;;;8.93;76.90;97180.30;103426;1310;22594;-81
2022/11/04 03:04:46;;;;;;;16.90;13.60;;;;;;;8.92;76.86;97179.84;103318;1309;25838;-84
2022/11/04 03:07:21;;;;;;;15.00;12.80;;;;;;;8.93;76.96;97169.83;103271;1307;22582;-82
2022/11/04 03:09:55;;;;;;;17.00;13.40;;;;;;;8.96;77.09;97170.98;103330;1310;22485;-82
2022/11/04 03:12:29;;;;;;;15.60;13.40;;;;;;;8.97;76.98;97171.38;103074;1309;22471;-82
2022/11/04 03:15:06;;;;;;;15.80;12.80;;;;;;;8.98;76.69;97171.87;103248;1303;22491;-81
2022/11/04 03:17:48;;;;;;;15.50;12.80;;;;;;;8.97;77.02;97166.88;103263;1309;22606;-82
2022/11/04 03:20:26;;;;;;;15.50;13.00;;;;;;;8.95;76.69;97170.86;103242;1309;22490;-81
2022/11/04 03:22:58;;;;;;;15.80;11.60;;;;;;;8.94;76.83;97165.71;103273;1295;24818;-82
2022/11/04 03:25:35;;;;;;;13.50;11.60;;;;;;;8.95;76.67;97165.10;103208;1312;24241;-82
2022/11/04 03:28:07;;;;;;;12.50;11.30;;;;;;;8.97;76.69;97164.08;103335;1310;24241;-81
2022/11/04 03:30:43;;;;;;;17.10;12.30;;;;;;;8.99;76.92;97152.54;103424;1303;22490;-80
2022/11/04 03:33:22;;;;;;;15.70;11.60;;;;;;;8.98;76.82;97153.05;103401;1306;24395;-81
2022/11/04 03:35:50;;;;;;;14.60;12.70;;;;;;;8.97;76.80;97150.98;103382;1289;22442;-82
2022/11/04 03:38:19;;;;;;;17.50;12.20;;;;;;;8.94;76.59;97145.84;103367;1310;24266;-81
2022/11/04 03:40:48;;;;;;;15.20;12.40;;;;;;;8.92;76.52;97148.13;103326;1310;22472;-80
2022/11/04 03:43:22;;;;;;;14.20;11.40;;;;;;;8.91;76.86;97143.58;103307;1310;22489;-80
2022/11/04 03:45:50;;;;;;;16.70;13.20;;;;;;;8.92;77.08;97142.98;103377;1300;23882;-80
2022/11/04 03:48:18;;;;;;;13.60;11.70;;;;;;;8.91;76.86;97138.77;103364;1310;22531;-81
2022/11/04 03:50:47;;;;;;;13.70;11.50;;;;;;;8.87;76.88;97128.41;103351;1310;25265;-81
2022/11/04 03:53:21;;;;;;;16.30;12.00;;;;;;;8.80;76.60;97125.30;103439;1310;25314;-81
2022/11/04 03:55:55;;;;;;;13.80;11.60;;;;;;;8.79;76.78;97126.99;103252;1310;25319;-81
2022/11/04 03:58:36;;;;;;;16.20;12.70;;;;;;;8.77;77.12;97134.54;103336;1310;22587;-81
2022/11/04 04:01:30;;;;;;;17.80;11.70;;;;;;;8.75;77.27;97135.60;103358;1304;22608;-82
2022/11/04 04:04:14;;;;;;;18.60;12.40;;;;;;;8.71;77.51;97126.98;103364;1309;22517;-82
2022/11/04 04:06:44;;;;;;;18.40;12.20;;;;;;;8.66;77.31;97121.46;103464;1310;25486;-81
2022/11/04 04:09:22;;;;;;;14.40;12.10;;;;;;;8.62;76.96;97119.98;103560;1294;23877;-82
2022/11/04 04:12:08;;;;;;;13.10;11.80;;;;;;;8.60;77.34;97115.10;103249;1298;22921;-81
2022/11/04 04:14:43;;;;;;;13.60;11.30;;;;;;;8.59;77.46;97116.47;103649;1310;24261;-82
2022/11/04 04:17:18;;;;;;;19.70;12.90;;;;;;;8.60;77.42;97112.59;104068;1310;22854;-82
2022/11/04 04:20:08;;;;;;;16.00;12.70;;;;;;;8.60;77.62;97112.97;103301;1310;22606;-82
2022/11/04 04:22:40;;;;;;;15.30;12.50;;;;;;;8.58;77.76;97108.16;103413;1309;22575;-83
2022/11/04 04:28:00;;;;;;;14.00;12.00;;;;;;;8.50;77.45;97099.87;103387;1310;22476;-81
2022/11/04 04:30:29;;;;;;;19.00;12.20;;;;;;;8.48;78.06;97095.73;103293;1310;22599;-82
2022/11/04 04:33:04;;;;;;;17.00;12.20;;;;;;;8.48;78.24;97091.83;103317;1310;22511;-81
2022/11/04 04:35:41;;;;;;;18.80;12.50;;;;;;;8.45;77.95;97097.30;103371;1288;24002;-81
2022/11/04 04:47:01;;;;;;;15.40;12.10;;;;;;;8.29;78.24;97092.76;103337;1299;22539;-81
2022/11/04 04:49:34;;;;;;;16.10;13.00;;;;;;;8.30;78.57;97092.20;103329;1310;22623;-81
2022/11/04 04:52:05;;;;;;;15.30;13.00;;;;;;;8.30;78.66;97094.02;103364;1302;24399;-80
2022/11/04 04:54:33;;;;;;;14.30;12.80;;;;;;;8.26;78.49;97089.02;103395;1310;22604;-80
2022/11/04 04:57:01;;;;;;;20.20;15.20;;;;;;;8.23;78.88;97085.55;103343;1310;22487;-81
2022/11/04 04:59:29;;;;;;;14.60;13.10;;;;;;;8.19;78.71;97083.61;103362;1310;22589;-81
2022/11/04 05:01:57;;;;;;;14.90;11.40;;;;;;;8.18;79.04;97077.38;103358;1310;23877;-80
2022/11/04 05:04:25;;;;;;;14.40;11.70;;;;;;;8.20;79.30;97072.34;103394;1310;22488;-81
2022/11/04 05:06:53;;;;;;;16.00;12.90;;;;;;;8.21;79.11;97075.02;103173;1310;22602;-81
2022/11/04 05:09:21;;;;;;;13.90;11.80;;;;;;;8.22;79.05;97075.20;103377;1310;25498;-81
2022/11/04 05:11:49;;;;;;;15.80;12.50;;;;;;;8.21;78.81;97074.32;103199;1312;23167;-81
2022/11/04 05:14:17;;;;;;;14.90;11.50;;;;;;;8.20;79.00;97071.52;103448;1311;25652;-82
2022/11/04 05:16:45;;;;;;;14.70;12.20;;;;;;;8.20;78.63;97072.38;103468;1300;22857;-84
2022/11/04 05:19:13;;;;;;;20.50;12.40;;;;;;;8.23;78.78;97072.80;103500;1310;24377;-81
2022/11/04 05:21:41;;;;;;;14.60;12.20;;;;;;;8.23;79.07;97072.60;103932;1310;22494;-82
2022/11/04 05:24:35;;;;;;;18.10;11.50;;;;;;;8.22;78.82;97069.77;103449;1301;22720;-82
2022/11/04 05:27:03;;;;;;;14.90;13.00;;;;;;;8.18;78.51;97074.10;103449;1285;22420;-82
2022/11/04 05:29:31;;;;;;;17.90;12.20;;;;;;;8.14;78.64;97075.36;103292;1310;22502;-80
2022/11/04 05:31:59;;;;;;;14.80;11.30;;;;;;;8.11;78.42;97069.59;103372;1295;25415;-81
2022/11/04 05:34:27;;;;;;;16.10;11.90;;;;;;;8.11;78.68;97072.02;103386;1310;25654;-82
2022/11/04 05:36:55;;;;;;;17.90;11.90;;;;;;;8.11;78.98;97076.51;103415;1309;22691;-82
2022/11/04 05:39:23;;;;;;;47.90;12.90;;;;;;;8.10;79.25;97076.11;103451;1310;22504;-83
2022/11/04 05:41:51;;;;;;;14.50;11.70;;;;;;;8.07;79.19;97076.02;103405;1294;23807;-83
2022/11/04 05:44:19;;;;;;;15.10;12.30;;;;;;;8.03;79.08;97071.60;103663;1310;25571;-81
2022/11/04 05:46:47;;;;;;;23.70;13.20;;;;;;;7.97;78.96;97071.84;103532;1310;22929;-81
2022/11/04 05:49:14;;;;;;;17.70;13.70;;;;;;;7.91;79.19;97068.48;103595;1309;25254;-82
2022/11/04 05:51:43;;;;;;;25.20;11.90;;;;;;;7.89;79.49;97071.52;103494;1297;22449;-80
2022/11/04 05:54:11;;;;;;;23.90;13.10;;;;;;;7.89;79.41;97065.14;103499;1310;24878;-81
2022/11/04 05:56:39;;;;;;;17.10;12.10;;;;;;;7.92;79.42;97066.52;103562;1310;22461;-81
2022/11/04 05:59:07;;;;;;;26.20;13.50;;;;;;;7.93;79.44;97066.65;103517;1310;22559;-82
2022/11/04 06:01:38;;;;;;;23.60;12.80;;;;;;;7.92;79.28;97063.35;103512;1294;23300;-83
2022/11/04 06:04:06;;;;;;;21.80;12.70;;;;;;;7.90;79.45;97069.83;103544;1293;24232;-81
2022/11/04 06:06:35;;;;;;;15.00;13.20;;;;;;;7.87;79.59;97068.40;103779;1305;22480;-82
2022/11/04 06:09:03;;;;;;;16.80;13.40;;;;;;;7.85;79.54;97067.00;103805;1289;25416;-82
2022/11/04 06:11:33;;;;;;;16.00;13.30;;;;;;;7.87;79.70;97067.16;103521;1310;22550;-85
2022/11/04 06:14:01;;;;;;;17.00;12.30;;;;;;;7.92;79.56;97073.77;103307;1310;22485;-82
2022/11/04 06:16:30;;;;;;;18.80;12.90;;;;;;;7.96;79.50;97067.50;103542;1310;24277;-83
2022/11/04 06:18:58;;;;;;;15.90;13.90;;;;;;;7.99;79.57;97070.34;103527;1310;22606;-82
2022/11/04 06:21:34;;;;;;;16.10;13.40;;;;;;;8.02;79.79;97069.10;103272;1310;22542;-82
2022/11/04 06:24:02;;;;;;;35.70;14.80;;;;;;;8.03;79.65;97072.83;103422;1291;25288;-81
2022/11/04 06:26:31;;;;;;;15.00;13.50;;;;;;;8.04;79.64;97064.98;103487;1310;22610;-82
2022/11/04 06:28:59;;;;;;;13.60;11.90;;;;;;;8.05;79.52;97069.73;103477;1310;22615;-82
2022/11/04 06:31:27;;;;;;;43.20;13.10;;;;;;;8.07;79.96;97065.33;103929;1294;25144;-82
2022/11/04 06:33:55;;;;;;;26.90;14.50;;;;;;;8.12;79.99;97064.89;103741;1310;25605;-82
2022/11/04 06:36:22;;;;;;;15.20;12.90;;;;;;;8.18;79.68;97072.02;103597;1310;22864;-82
2022/11/04 06:38:51;;;;;;;37.90;14.00;;;;;;;8.21;79.94;97070.65;103622;1309;24802;-83
2022/11/04 06:41:19;;;;;;;36.20;13.50;;;;;;;8.22;79.67;97069.23;103599;1288;23883;-82
2022/11/04 06:43:47;;;;;;;17.00;13.40;;;;;;;8.23;79.30;97066.49;103457;1288;24683;-82
2022/11/04 06:46:30;;;;;;;13.80;12.20;;;;;;;8.27;79.66;97071.08;103394;1288;22743;-81
2022/11/04 06:48:58;;;;;;;30.60;14.40;;;;;;;8.33;79.49;97066.20;103460;1303;22600;-82
2022/11/04 06:51:26;;;;;;;18.70;12.70;;;;;;;8.37;79.42;97069.92;103599;1310;22483;-82
2022/11/04 06:53:54;;;;;;;52.50;16.90;;;;;;;8.42;79.49;97069.02;103419;1293;25504;-81
2022/11/04 06:56:22;;;;;;;18.20;14.10;;;;;;;8.47;79.15;97070.79;103455;1310;23578;-82
2022/11/04 06:58:52;;;;;;;24.00;16.70;;;;;;;8.52;79.21;97065.67;103452;1310;24268;-82
2022/11/04 07:01:24;;;;;;;17.70;14.10;;;;;;;8.57;79.69;97064.58;103515;1294;22609;-81
2022/11/04 07:03:55;;;;;;;15.00;12.70;;;;;;;8.63;79.53;97068.31;103566;1309;22769;-82
2022/11/04 07:06:24;;;;;;;28.30;15.40;;;;;;;8.67;79.49;97065.10;103551;1297;22483;-79
2022/11/04 07:08:52;;;;;;;38.70;14.50;;;;;;;8.68;79.15;97062.05;103317;1298;23330;-80
2022/11/04 07:11:21;;;;;;;14.60;13.00;;;;;;;8.68;79.09;97059.96;103338;1310;25386;-81
2022/11/04 07:13:49;;;;;;;22.80;14.50;;;;;;;8.68;79.12;97064.42;103461;1310;22860;-82
2022/11/04 07:16:17;;;;;;;22.50;13.80;;;;;;;8.70;79.13;97063.75;103455;1291;25513;-81
2022/11/04 07:18:48;;;;;;;23.90;12.70;;;;;;;8.75;79.10;97059.91;103477;1296;22614;-81
2022/11/04 07:21:16;;;;;;;27.20;12.90;;;;;;;8.82;79.21;97059.52;103496;1310;22869;-83
2022/11/04 07:23:44;;;;;;;33.70;13.40;;;;;;;8.89;79.19;97059.33;103438;1310;24444;-82
2022/11/04 07:26:13;;;;;;;17.10;13.50;;;;;;;8.95;79.10;97059.78;103255;1291;25242;-83
2022/11/04 07:28:41;;;;;;;22.60;13.50;;;;;;;8.98;78.84;97061.30;103451;1310;22544;-82
2022/11/04 07:31:11;;;;;;;21.60;13.70;;;;;;;8.99;78.44;97062.23;103487;1310;24383;-82
2022/11/04 07:33:39;;;;;;;16.60;14.10;;;;;;;9.02;78.82;97064.14;103498;1310;25654;-85
2022/11/04 07:36:10;;;;;;;15.00;13.40;;;;;;;9.04;78.34;97065.55;103332;1310;22548;-81
2022/11/04 07:38:39;;;;;;;26.70;13.70;;;;;;;9.08;78.54;97065.12;103455;1310;22603;-82
2022/11/04 07:41:07;;;;;;;15.10;12.90;;;;;;;9.16;78.12;97061.52;103520;1310;22460;-81
2022/11/04 07:43:36;;;;;;;22.10;12.40;;;;;;;9.20;78.35;97059.80;103834;1310;22498;-81
2022/11/04 07:46:14;;;;;;;18.80;13.20;;;;;;;9.24;77.98;97057.45;103413;1310;22466;-81
2022/11/04 07:48:42;;;;;;;18.50;14.60;;;;;;;9.27;78.03;97051.60;103332;1312;24263;-83
2022/11/04 07:51:15;;;;;;;19.50;13.70;;;;;;;9.30;77.72;97050.83;103513;1304;22532;-79
2022/11/04 07:53:43;;;;;;;20.20;13.60;;;;;;;9.33;77.58;97047.35;103488;1288;26503;-80
2022/11/04 07:56:12;;;;;;;15.10;13.20;;;;;;;9.38;77.30;97042.56;103427;1310;23222;-85
2022/11/04 07:58:40;;;;;;;15.40;13.10;;;;;;;9.42;77.48;97045.84;103445;1289;25266;-82
2022/11/04 08:01:12;;;;;;;16.50;12.70;;;;;;;9.49;77.51;97048.52;103505;1310;25353;-82
2022/11/04 08:03:41;;;;;;;20.30;12.30;;;;;;;9.58;77.29;97049.99;103564;1297;22482;-82
2022/11/04 08:06:12;;;;;;;14.70;13.10;;;;;;;9.65;77.32;97043.78;103468;1308;22583;-80
2022/11/04 08:08:42;;;;;;;21.00;14.00;;;;;;;9.70;77.22;97044.33;103312;1290;22500;-82
2022/11/04 08:11:16;;;;;;;21.00;13.50;;;;;;;9.77;76.88;97048.55;103606;1294;22435;-82
2022/11/04 08:13:45;;;;;;;;;;;;;;;9.86;76.79;97042.90;103464;1310;25289;-82
2022/11/04 08:16:16;;;;;;;40.40;16.80;;;;;;;9.96;76.92;97035.89;103525;1296;22453;-82
2022/11/04 08:18:47;;;;;;;20.00;12.40;;;;;;;10.07;76.62;97033.55;103537;1310;24306;-81
2022/11/04 08:21:15;;;;;;;18.00;12.60;;;;;;;10.19;75.96;97034.46;103322;1310;25550;-81
2022/11/04 08:23:44;;;;;;;18.60;11.30;;;;;;;10.31;76.15;97034.77;103616;1310;22467;-82
2022/11/04 08:26:18;;;;;;;15.40;10.50;;;;;;;10.41;76.12;97031.83;103444;1310;22545;-82
2022/11/04 08:28:46;;;;;;;13.80;10.80;;;;;;;10.49;75.62;97033.41;103658;1304;23227;-82
2022/11/04 08:31:16;;;;;;;15.50;12.50;;;;;;;10.56;75.42;97031.01;103546;1307;22491;-81
2022/11/04 08:33:45;;;;;;;14.10;11.70;;;;;;;10.63;75.23;97023.87;103656;1310;24327;-82
2022/11/04 08:36:39;;;;;;;18.20;12.40;;;;;;;10.72;75.19;97023.21;103301;1310;22964;-82
2022/11/04 08:39:09;;;;;;;19.90;11.70;;;;;;;10.84;75.02;97022.83;103539;1283;22481;-85
2022/11/04 08:41:40;;;;;;;15.80;12.20;;;;;;;10.98;75.11;97014.23;103740;1294;26537;-85
2022/11/04 08:44:10;;;;;;;17.90;11.90;;;;;;;11.12;74.83;97014.66;103660;1294;25315;-85
2022/11/04 08:46:40;;;;;;;14.70;11.60;;;;;;;11.27;74.33;97009.61;103666;1294;22476;-84
2022/11/04 08:49:09;;;;;;;18.30;10.70;;;;;;;11.41;74.22;97004.14;104068;1310;22523;-86
2022/11/04 08:51:45;;;;;;;;;;;;;;;11.55;74.27;97004.92;104060;1310;23572;-86
2022/11/04 08:54:13;;;;;;;16.20;10.90;;;;;;;11.70;74.59;97000.16;104728;1309;22691;-86
2022/11/04 08:56:41;;;;;;;14.10;11.40;;;;;;;11.85;74.06;96993.73;105868;1310;22527;-87
2022/11/04 08:59:10;;;;;;;25.40;11.60;;;;;;;11.98;73.34;96996.48;104671;1310;25324;-87
2022/11/04 09:01:38;;;;;;;16.20;9.90;;;;;;;12.10;72.12;96991.68;104677;1310;22489;-88
2022/11/04 09:04:06;;;;;;;26.80;11.00;;;;;;;12.20;71.46;96990.35;104232;1310;22877;-87
2022/11/04 09:06:38;;;;;;;16.70;9.40;;;;;;;12.31;71.18;96988.25;103746;1277;22483;-82
2022/11/04 09:09:09;;;;;;;13.40;8.90;;;;;;;12.44;71.00;96985.30;103876;1297;25423;-86
2022/11/04 09:11:39;;;;;;;17.40;10.20;;;;;;;12.56;70.48;96983.63;103885;1303;22650;-84
2022/11/04 09:14:07;;;;;;;14.70;9.50;;;;;;;12.69;70.74;96981.14;104193;1297;25347;-83
2022/11/04 09:16:38;;;;;;;49.20;11.60;;;;;;;12.83;70.28;96980.38;103863;1304;22478;-83
2022/11/04 09:19:06;;;;;;;23.90;11.00;;;;;;;12.96;70.03;96978.33;105558;1305;22973;-84
2022/11/04 09:21:34;;;;;;;16.00;9.30;;;;;;;13.11;69.83;96978.42;105882;1310;22523;-83
2022/11/04 09:24:03;;;;;;;16.80;9.20;;;;;;;13.23;68.90;96973.89;105870;1310;22355;-82
2022/11/04 09:26:32;;;;;;;12.00;8.50;;;;;;;13.34;67.99;96975.64;103971;1303;24516;-84
2022/11/04 09:29:00;;;;;;;11.30;9.40;;;;;;;13.43;68.35;96973.58;103928;1288;22564;-83
2022/11/04 09:31:55;;;;;;;13.70;9.30;;;;;;;13.55;68.54;96974.27;103851;1304;22504;-83
2022/11/04 09:34:23;;;;;;;27.40;9.90;;;;;;;13.73;68.83;96974.95;103922;1310;24242;-83
2022/11/04 09:36:54;;;;;;;17.80;9.00;;;;;;;13.84;68.00;96972.44;103665;1310;22507;-82
2022/11/04 09:39:24;;;;;;;12.30;8.20;;;;;;;13.95;68.06;96963.23;103561;1309;22840;-82
2022/11/04 09:42:23;;;;;;;26.70;9.80;;;;;;;14.05;67.83;96954.23;103567;1310;23463;-82
2022/11/04 09:45:08;;;;;;;14.20;8.80;;;;;;;14.16;67.36;96952.52;103617;1294;22506;-85
2022/11/04 09:47:59;;;;;;;14.40;9.20;;;;;;;14.30;67.99;96945.46;103665;1310;24301;-83
2022/11/04 09:50:34;;;;;;;27.80;10.10;;;;;;;14.41;67.15;96942.81;103592;1310;22482;-83
2022/11/04 09:53:21;;;;;;;16.00;8.30;;;;;;;14.46;66.52;96948.68;103537;1294;22684;-83
2022/11/04 09:55:54;;;;;;;11.70;8.00;;;;;;;14.51;66.37;96950.20;103594;1309;24255;-83
2022/11/04 09:58:23;;;;;;;69.20;10.30;;;;;;;14.55;66.12;96950.65;103418;1315;24041;-83
2022/11/04 10:01:01;;;;;;;102.40;12.60;;;;;;;14.56;64.46;96944.16;103726;1310;22902;-84
2022/11/04 10:03:47;;;;;;;15.20;9.20;;;;;;;14.56;65.56;96936.41;103778;1310;24346;-83
2022/11/04 10:06:26;;;;;;;18.30;8.40;;;;;;;14.64;65.40;96936.31;104322;1288;22459;-85
2022/11/04 10:09:00;;;;;;;16.00;8.50;;;;;;;14.69;64.81;96936.90;104156;1310;24148;-84
2022/11/04 10:11:47;;;;;;;20.30;9.40;;;;;;;14.76;64.88;96940.02;104440;1309;22460;-83
2022/11/04 10:14:24;;;;;;;40.10;10.20;;;;;;;14.86;64.43;96939.95;104235;1309;25263;-85
2022/11/04 10:17:11;;;;;;;25.70;9.10;;;;;;;14.90;63.50;96944.04;103858;1309;25357;-84
2022/11/04 10:20:03;;;;;;;22.40;9.40;;;;;;;14.92;63.87;96940.29;103968;1309;25405;-85
2022/11/04 10:22:38;;;;;;;18.70;8.50;;;;;;;14.94;63.65;96938.48;103622;1309;22487;-84
2022/11/04 10:25:14;;;;;;;18.40;9.30;;;;;;;14.95;64.06;96936.16;103551;1290;22499;-85
2022/11/04 10:27:45;;;;;;;22.80;8.80;;;;;;;15.00;64.07;96935.98;103449;1310;22561;-82
2022/11/04 10:30:18;;;;;;;14.90;8.50;;;;;;;15.09;63.50;96932.86;103500;1310;25246;-81
2022/11/04 10:33:08;;;;;;;21.00;8.90;;;;;;;15.16;63.67;96927.05;103827;1309;24241;-82
2022/11/04 10:35:41;;;;;;;21.80;8.60;;;;;;;15.28;63.45;96928.55;103746;1309;22499;-81
2022/11/04 10:38:30;;;;;;;29.60;9.90;;;;;;;15.36;63.39;96929.98;103789;1310;25358;-81
2022/11/04 10:40:58;;;;;;;13.40;9.30;;;;;;;15.43;63.43;96930.61;104135;1309;23224;-82
2022/11/04 10:43:38;;;;;;;15.60;9.00;;;;;;;15.48;63.37;96930.95;103348;1310;22476;-82
2022/11/04 10:46:29;;;;;;;12.80;8.70;;;;;;;15.51;63.23;96930.08;103381;1309;22588;-81
2022/11/04 10:49:20;;;;;;;16.10;9.00;;;;;;;15.56;62.87;96936.48;103433;1309;25251;-83
2022/11/04 10:51:48;;;;;;;18.10;8.80;;;;;;;15.57;62.50;96928.89;103547;1309;22487;-82
2022/11/04 10:54:16;;;;;;;15.70;9.30;;;;;;;15.52;62.09;96926.23;103516;1307;22918;-81
2022/11/04 10:56:53;;;;;;;17.00;9.40;;;;;;;15.47;61.88;96920.99;103543;1309;22800;-83
2022/11/04 10:59:36;;;;;;;15.00;8.70;;;;;;;15.39;62.01;96921.77;103500;1310;22489;-83
2022/11/04 11:02:06;;;;;;;17.40;8.40;;;;;;;15.35;61.47;96919.89;103528;1309;24962;-82
2022/11/04 11:04:36;;;;;;;14.20;8.30;;;;;;;15.28;60.74;96922.75;103238;1306;22492;-80
2022/11/04 11:07:07;;;;;;;15.70;8.50;;;;;;;15.21;60.47;96919.17;103352;1291;25365;-81
2022/11/04 11:09:52;;;;;;;13.00;8.20;;;;;;;15.13;60.51;96913.80;103526;1304;23227;-86
2022/11/04 11:12:29;;;;;;;104.50;13.40;;;;;;;15.08;60.81;96907.39;103383;1309;24033;-85
2022/11/04 11:15:31;;;;;;;19.40;10.40;;;;;;;15.09;60.60;96904.02;103262;1311;22500;-84
2022/11/04 11:18:12;;;;;;;17.00;8.70;;;;;;;15.11;60.51;96897.77;103740;1306;22511;-84
2022/11/04 11:20:46;;;;;;;17.10;10.60;;;;;;;15.15;60.61;96895.30;103830;1311;22490;-82
2022/11/04 11:23:35;;;;;;;23.30;11.20;;;;;;;15.17;60.57;96898.48;103371;1310;26036;-86
2022/11/04 11:26:07;;;;;;;14.50;8.30;;;;;;;15.25;61.22;96895.86;106181;1309;22687;-88
2022/11/04 11:28:38;;;;;;;19.80;8.40;;;;;;;15.65;62.13;96900.76;104915;1305;599161;-88
2022/11/04 11:31:22;;;;;;;26.40;8.70;;;;;;;15.96;62.28;96899.23;105243;1298;25271;-89
2022/11/04 11:33:56;;;;;;;14.50;9.60;;;;;;;16.18;62.70;96892.90;105316;1280;22603;-86
2022/11/04 11:36:29;;;;;;;16.00;9.80;;;;;;;16.36;62.57;96891.29;106523;1283;22442;-90
2022/11/04 11:39:00;;;;;;;15.90;9.80;;;;;;;16.55;63.47;96877.88;105589;1302;22489;-92
2022/11/04 11:41:30;;;;;;;14.50;9.30;;;;;;;16.69;61.39;96884.80;105991;1280;22529;-89
2022/11/04 11:44:21;;;;;;;16.80;9.60;;;;;;;16.53;60.85;96880.48;104214;1306;25366;-83
2022/11/04 11:46:55;;;;;;;15.60;10.00;;;;;;;16.26;60.86;96879.52;103731;1309;22601;-84
2022/11/04 11:49:27;;;;;;;45.30;11.60;;;;;;;15.99;61.05;96882.38;103706;1309;22518;-84
2022/11/04 11:52:29;;;;;;;31.10;10.90;;;;;;;15.81;60.81;96882.10;103635;1297;24041;-85
2022/11/04 11:55:19;;;;;;;23.60;9.10;;;;;;;15.58;60.70;96883.77;103322;1297;23290;-83
2022/11/04 11:58:25;;;;;;;17.40;10.50;;;;;;;15.43;60.85;96885.55;103428;1309;22473;-82
2022/11/04 12:01:33;;;;;;;31.20;11.80;;;;;;;15.30;60.93;96882.00;103716;1309;23282;-84
2022/11/04 12:04:02;;;;;;;23.30;10.90;;;;;;;15.21;60.87;96874.59;103040;1296;23880;-81
2022/11/04 12:07:26;;;;;;;15.50;10.10;;;;;;;15.12;60.66;96873.23;103506;1309;23473;-82
2022/11/04 12:10:28;;;;;;;14.60;10.20;;;;;;;15.03;60.47;96864.87;103372;1316;24256;-81
2022/11/04 12:13:34;;;;;;;14.90;8.60;;;;;;;14.96;60.58;96863.89;102926;1318;23892;-82
2022/11/04 12:16:20;;;;;;;17.10;8.60;;;;;;;14.95;60.53;96863.55;102734;1310;25216;-80
2022/11/04 12:18:53;;;;;;;19.60;10.30;;;;;;;14.95;60.11;96857.59;102724;1318;26482;-84